SCIE

Carriel Sur Airport

Concepcion, Chile
TAF SCIE 171635Z 1718/1818 22010KT CAVOK TX19/1718Z TN11/1811Z TEMPO 1718/1800 CAVOK BECMG 1802/1804 23004KT BECMG 1815/1817 22015KT
Issued Valid From Valid To
Nov-17 @ 16:35 UTC
(5 hours ago)
Nov-17 @ 18:00 UTC
(4 hours ago)
Nov-18 @ 18:00 UTC
(in 20 hours)
Nov-17 @ 18:00 to Nov-18 @ 02:00
TAF SCIE 171635Z 1718/1818 22010KT CAVOK TX19/1718Z TN11/1811Z
Wind Visibility Clouds
220° at 10 knots 10,000+ meters
  • No significant clouds
Temporary Nov-17 @ 18:00 to Nov-18 @ 00:00
TEMPO 1718/1800 CAVOK
Visibility Clouds Conditions
10,000+ meters
  • No significant clouds
Becoming Nov-18 @ 02:00 to Nov-18 @ 15:00
BECMG 1802/1804 23004KT
Wind Visibility Clouds
230° at 4 knots 10,000+ meters
  • No significant clouds
Becoming Nov-18 @ 15:00 to Nov-18 @ 18:00
BECMG 1815/1817 22015KT
Wind Visibility Clouds
220° at 15 knots 10,000+ meters
  • No significant clouds
TAF SCIE 171635Z 1718/1818 22010KT CAVOK TX19/1718Z TN11/1811Z TEMPO 1718/1800 CAVOK BECMG 1802/1804 23004KT BECMG 1815/1817 22015KT
Issued Nov-17 @ 16:35 UTC
(5 hours ago)
Valid From Nov-17 @ 18:00 UTC
(4 hours ago)
Valid To Nov-18 @ 18:00 UTC
(in 20 hours)
Nov-17 @ 18:00 - Nov-18 @ 02:00
Wind Visibility
220° at 10 knots 10,000+ meters
Clouds
  • No significant clouds
Temporary Nov-17 @ 18:00 - Nov-18 @ 00:00
Clouds
  • No significant clouds
Conditions
Becoming Nov-18 @ 02:00 - Nov-18 @ 15:00
Wind Visibility
230° at 4 knots 10,000+ meters
Clouds
  • No significant clouds
Becoming Nov-18 @ 15:00 - Nov-18 @ 18:00
Wind Visibility
220° at 15 knots 10,000+ meters
Clouds
  • No significant clouds